createdAt,value
2022-07-25T16:51:26.286Z,0
2022-07-25T16:52:34.927Z,36.074829
2022-07-25T16:53:43.630Z,36.024475
2022-07-25T16:54:53.321Z,36.094971
2022-07-25T16:56:00.976Z,36.20575
2022-07-25T16:57:10.699Z,36.165466
2022-07-25T16:58:19.378Z,36.165466
2022-07-25T16:59:28.058Z,36.115112
2022-07-25T17:00:37.798Z,36.014404
2022-07-25T17:01:46.709Z,35.974121
2022-07-25T17:02:56.180Z,35.863342
2022-07-25T17:04:05.864Z,35.762634
2022-07-25T17:05:14.573Z,35.823059
2022-07-25T17:06:24.208Z,35.853271
2022-07-25T17:07:32.867Z,35.802917
2022-07-25T17:08:41.575Z,35.762634
2022-07-25T17:09:51.297Z,35.682068
2022-07-25T17:11:00.007Z,35.631714
2022-07-25T17:12:08.742Z,35.641785
2022-07-25T17:13:18.434Z,35.46051
2022-07-25T17:14:30.122Z,35.369873
2022-07-25T17:15:36.914Z,35.480652
2022-07-25T17:16:46.485Z,35.410156
2022-07-25T17:17:55.179Z,35.359802
2022-07-25T17:19:05.195Z,35.339661
2022-07-25T17:20:12.578Z,35.299377
2022-07-25T17:21:21.287Z,35.188599
2022-07-25T17:22:31.080Z,35.138245
2022-07-25T17:23:38.744Z,35.108032
2022-07-25T17:24:48.450Z,34.95697
2022-07-25T17:25:57.194Z,34.795837
2022-07-25T17:27:04.879Z,34.664917
2022-07-25T17:28:14.571Z,34.513855
2022-07-25T17:29:22.243Z,34.352722
2022-07-25T17:30:31.912Z,34.352722
2022-07-25T17:31:41.781Z,34.292297
2022-07-25T17:32:50.313Z,34.181519
2022-07-25T17:33:59.979Z,34.161377
2022-07-25T17:35:08.648Z,34.241943
2022-07-25T17:36:16.329Z,34.292297
2022-07-25T17:37:26.190Z,34.292297
2022-07-25T17:38:34.904Z,34.181519
2022-07-25T17:39:42.632Z,34.171448
2022-07-25T17:40:52.273Z,34.111023
2022-07-25T17:42:00.937Z,34.080811
2022-07-25T17:43:10.632Z,34.030457
2022-07-25T17:44:19.953Z,34.010315
2022-07-25T17:45:27.927Z,33.980103
2022-07-25T17:46:37.635Z,33.829041
2022-07-25T17:47:46.307Z,33.728333
2022-07-25T17:48:56.002Z,33.677979
2022-07-25T17:50:05.749Z,33.647766
2022-07-25T17:51:14.406Z,33.667908
2022-07-25T17:52:24.085Z,33.617554
2022-07-25T17:53:32.737Z,33.607483
2022-07-25T17:54:41.468Z,33.607483
2022-07-25T17:55:51.185Z,33.577271
2022-07-25T17:56:58.909Z,33.547058
2022-07-25T17:58:07.601Z,33.496704
2022-07-25T17:59:17.286Z,33.456421
2022-07-25T18:00:24.968Z,33.395996
2022-07-25T18:01:34.701Z,33.335571
2022-07-25T18:02:44.385Z,33.275146
2022-07-25T18:03:51.999Z,33.265076
2022-07-25T18:05:01.695Z,33.244934
2022-07-25T18:06:09.400Z,33.204651
2022-07-25T18:07:18.150Z,33.154297
2022-07-25T18:08:27.879Z,33.154297
2022-07-25T18:09:37.565Z,33.124084
2022-07-25T18:10:47.240Z,33.083801
2022-07-25T18:11:56.976Z,33.07373
2022-07-25T18:13:04.752Z,33.07373
2022-07-25T18:14:14.524Z,33.053589
2022-07-25T18:15:23.270Z,33.043518
2022-07-25T18:16:31.984Z,33.013306
2022-07-25T18:17:41.677Z,32.973022
2022-07-25T18:18:50.334Z,32.962952
2022-07-25T18:19:59.989Z,32.932739
2022-07-25T18:21:07.707Z,32.902527
2022-07-25T18:22:15.452Z,32.892456
2022-07-25T18:23:25.298Z,32.801819
2022-07-25T18:24:34.959Z,32.600403
2022-07-25T18:25:44.613Z,32.459412
2022-07-25T18:26:54.276Z,32.328491
2022-07-25T18:28:01.932Z,32.217712
2022-07-25T18:29:11.608Z,32.147217
2022-07-25T18:30:20.266Z,32.086792
2022-07-25T18:31:29.968Z,31.996155
2022-07-25T18:32:39.593Z,31.885376
2022-07-25T18:33:48.263Z,31.774597
2022-07-25T18:34:56.951Z,31.694031
2022-07-25T18:36:07.657Z,31.593323
2022-07-25T18:37:15.290Z,31.522827
2022-07-25T18:38:24.946Z,31.442261
2022-07-25T18:39:34.615Z,31.391907
2022-07-25T18:40:44.317Z,31.291199
2022-07-25T18:41:53.965Z,31.200562
2022-07-25T18:43:04.014Z,31.119995
2022-07-25T18:44:12.262Z,31.05957
2022-07-25T18:45:19.915Z,30.968933
2022-07-25T18:46:28.667Z,30.918579
2022-07-25T18:47:38.243Z,30.838013
2022-07-25T18:48:46.985Z,30.797729
2022-07-25T18:49:56.606Z,30.717163
2022-07-25T18:51:05.245Z,30.67688
2022-07-25T18:52:12.936Z,30.646667
2022-07-25T18:53:21.598Z,30.616455
2022-07-25T18:54:30.255Z,30.535889
2022-07-25T18:55:39.980Z,30.475464
2022-07-25T18:56:49.706Z,30.404968
2022-07-25T18:57:57.537Z,30.344543
2022-07-25T18:59:06.443Z,30.30426
2022-07-25T19:00:15.866Z,30.274048
2022-07-25T19:01:23.578Z,30.213623
2022-07-25T19:02:33.187Z,30.163269
2022-07-25T19:03:41.004Z,30.122986
2022-07-25T19:04:50.559Z,30.092773
2022-07-25T19:06:03.309Z,30.032349
2022-07-25T19:07:09.866Z,29.981995
2022-07-25T19:08:19.551Z,29.911499
2022-07-25T19:09:29.243Z,29.901428
2022-07-25T19:10:37.899Z,29.861145
2022-07-25T19:11:47.554Z,29.820862
2022-07-25T19:12:55.220Z,29.780579
2022-07-25T19:14:05.141Z,29.760437
2022-07-25T19:15:14.669Z,29.710083
2022-07-25T19:16:23.482Z,29.710083
2022-07-25T19:17:33.118Z,29.679871
2022-07-25T19:18:41.795Z,29.659729
2022-07-25T19:19:51.465Z,29.649658
2022-07-25T19:21:01.185Z,29.599304
2022-07-25T19:22:08.856Z,29.559021
2022-07-25T19:23:17.541Z,29.528809
2022-07-25T19:24:27.271Z,29.488525
2022-07-25T19:25:34.947Z,29.488525
2022-07-25T19:26:47.848Z,29.468384
2022-07-25T19:27:54.305Z,29.438171
2022-07-25T19:29:01.969Z,29.41803
2022-07-25T19:30:16.828Z,29.407959
2022-07-25T19:31:21.345Z,29.377747
2022-07-25T19:32:29.978Z,29.347534
2022-07-25T19:33:40.655Z,29.337463
2022-07-25T19:34:49.334Z,29.317322
2022-07-25T19:35:59.613Z,29.266968
2022-07-25T19:37:08.699Z,29.266968
2022-07-25T19:38:16.379Z,29.236755
2022-07-25T19:39:26.045Z,29.236755
2022-07-25T19:40:33.703Z,29.16626
2022-07-25T19:41:46.591Z,29.16626
2022-07-25T19:42:53.048Z,29.125977
2022-07-25T19:44:01.723Z,29.125977
2022-07-25T19:45:11.398Z,29.095764
2022-07-25T19:46:20.177Z,29.075623
2022-07-25T19:47:28.841Z,29.015198
2022-07-25T19:48:38.559Z,29.005127
2022-07-25T19:49:47.196Z,28.964844
2022-07-25T19:50:56.862Z,28.944702
2022-07-25T19:52:06.570Z,28.91449
2022-07-25T19:53:16.233Z,28.894348
2022-07-25T19:54:26.883Z,28.843994
2022-07-25T19:55:35.605Z,28.79364
2022-07-25T19:56:44.291Z,28.783569
2022-07-25T19:57:54.033Z,28.763428
2022-07-25T19:59:03.703Z,28.753357
2022-07-25T20:00:12.390Z,28.743286
2022-07-25T20:01:22.231Z,28.703003
2022-07-25T20:02:30.958Z,28.672791
2022-07-25T20:03:40.537Z,28.632507
2022-07-25T20:04:50.207Z,28.602295
2022-07-25T20:05:58.871Z,28.562012
2022-07-25T20:07:09.534Z,28.521729
2022-07-25T20:08:18.194Z,28.491516
2022-07-25T20:09:26.851Z,28.451233
2022-07-25T20:10:36.532Z,28.441162
2022-07-25T20:11:45.194Z,28.41095
2022-07-25T20:12:58.182Z,28.390808
2022-07-25T20:14:04.895Z,28.350525
2022-07-25T20:15:12.225Z,28.330383
2022-07-25T20:16:21.927Z,28.320312
2022-07-25T20:17:30.577Z,28.269958
2022-07-25T20:18:39.297Z,28.259888
2022-07-25T20:19:48.985Z,28.229675
2022-07-25T20:20:56.654Z,28.219604
2022-07-25T20:22:06.356Z,28.16925
2022-07-25T20:23:15.019Z,28.118896
2022-07-25T20:24:24.731Z,28.078613
2022-07-25T20:25:33.387Z,28.048401
2022-07-25T20:26:41.042Z,27.998047
2022-07-25T20:27:50.705Z,27.957764
2022-07-25T20:29:00.400Z,27.947693
2022-07-25T20:30:09.081Z,27.927551
2022-07-25T20:31:18.877Z,27.927551
2022-07-25T20:32:28.426Z,27.91748
2022-07-25T20:33:36.119Z,27.867126
2022-07-25T20:34:45.781Z,27.826843
2022-07-25T20:35:55.443Z,27.746277
2022-07-25T20:37:05.086Z,27.675781
2022-07-25T20:38:14.737Z,27.585144
2022-07-25T20:39:23.408Z,27.514648
2022-07-25T20:40:33.059Z,27.444153
2022-07-25T20:41:42.722Z,27.373657
2022-07-25T20:42:52.394Z,27.323303
2022-07-25T20:44:02.079Z,27.222595
2022-07-25T20:45:11.727Z,26.950684
2022-07-25T20:46:21.396Z,26.739197
2022-07-25T20:47:30.156Z,26.507568
2022-07-25T20:48:38.875Z,26.306152
2022-07-25T20:49:48.463Z,26.15509
2022-07-25T20:50:56.135Z,26.064453
2022-07-25T20:52:05.824Z,25.913391
2022-07-25T20:53:14.496Z,25.812683
2022-07-25T20:54:22.137Z,25.631409
2022-07-25T20:55:30.802Z,25.480347
2022-07-25T20:56:38.467Z,25.057373
2022-07-25T20:57:50.418Z,24.604187
2022-07-25T20:58:56.788Z,24.241638
2022-07-25T21:00:06.465Z,24.100647
2022-07-25T21:01:16.181Z,24.01001
2022-07-25T21:02:25.873Z,23.979797
2022-07-25T21:03:34.454Z,23.919373
2022-07-25T21:04:44.233Z,23.869019
2022-07-25T21:05:51.893Z,23.838806
2022-07-25T21:07:00.536Z,23.858948
2022-07-25T21:08:09.181Z,23.838806
2022-07-25T21:09:17.839Z,23.838806
2022-07-25T21:10:28.524Z,23.808594
2022-07-25T21:11:37.174Z,23.778381
2022-07-25T21:12:45.822Z,23.728027
2022-07-25T21:13:55.483Z,23.647461
2022-07-25T21:15:02.118Z,23.556824
2022-07-25T21:16:10.884Z,23.466187
2022-07-25T21:17:18.469Z,23.435974
2022-07-25T21:18:26.129Z,23.355408
2022-07-25T21:19:35.783Z,23.244629
2022-07-25T21:20:45.449Z,23.184204
2022-07-25T21:21:54.132Z,23.153992
2022-07-25T21:23:03.825Z,23.103638
2022-07-25T21:24:11.463Z,23.033142
2022-07-25T21:25:20.134Z,23.00293
2022-07-25T21:26:29.790Z,23.00293
2022-07-25T21:27:37.512Z,22.992859
2022-07-25T21:28:47.167Z,22.982788
2022-07-25T21:29:55.860Z,22.982788
2022-07-25T21:31:04.525Z,22.982788
2022-07-25T21:32:14.254Z,22.932434
2022-07-25T21:33:21.845Z,22.801514
2022-07-25T21:34:30.493Z,22.720947
2022-07-25T21:35:46.920Z,22.569885
2022-07-25T21:36:50.866Z,22.469177
2022-07-25T21:38:00.519Z,22.318115
2022-07-25T21:39:09.586Z,22.24762
2022-07-25T21:40:17.915Z,22.056274
2022-07-25T21:41:27.595Z,21.834717
2022-07-25T21:42:36.295Z,21.603088
2022-07-25T21:43:44.950Z,21.37146
2022-07-25T21:44:54.632Z,21.139832
2022-07-25T21:46:04.407Z,20.928345
2022-07-25T21:47:13.949Z,20.74707
2022-07-25T21:48:23.616Z,20.61615
2022-07-25T21:49:41.764Z,20.475159
2022-07-25T21:50:43.834Z,20.394592
2022-07-25T21:51:52.593Z,20.324097
2022-07-25T21:53:01.226Z,20.293884
2022-07-25T21:54:10.888Z,20.283813
2022-07-25T21:55:20.567Z,20.253601
2022-07-25T21:56:30.239Z,20.213318
2022-07-25T21:57:39.929Z,20.193176
2022-07-25T21:58:48.575Z,20.183105
2022-07-25T21:59:58.225Z,20.142822
2022-07-25T22:01:07.918Z,20.062256
2022-07-25T22:02:17.542Z,20.001831
2022-07-25T22:03:27.283Z,20.021973
2022-07-25T22:04:34.882Z,20.001831
2022-07-25T22:05:43.534Z,19.99176
2022-07-25T22:06:52.220Z,20.001831
2022-07-25T22:08:00.000Z,19.921265
2022-07-25T22:09:10.108Z,19.941406
2022-07-25T22:10:19.318Z,19.941406
2022-07-25T22:11:38.754Z,19.86084
2022-07-25T22:12:37.593Z,19.790344
2022-07-25T22:13:45.261Z,19.709778
2022-07-25T22:14:54.930Z,19.669495
2022-07-25T22:16:04.657Z,19.588928
2022-07-25T22:17:13.263Z,19.48822
2022-07-25T22:18:22.917Z,19.407654
2022-07-25T22:19:30.582Z,19.367371
2022-07-25T22:20:40.232Z,19.327087
2022-07-25T22:21:48.872Z,19.286804
2022-07-25T22:22:56.516Z,19.266663
2022-07-25T22:24:06.180Z,19.23645
2022-07-25T22:25:14.834Z,19.266663
2022-07-25T22:26:22.544Z,19.286804
2022-07-25T22:27:32.232Z,19.266663
2022-07-25T22:28:40.870Z,19.23645
2022-07-25T22:29:49.528Z,19.206238
2022-07-25T22:30:59.218Z,19.206238
2022-07-25T22:32:06.912Z,19.176025
2022-07-25T22:33:16.511Z,19.176025
2022-07-25T22:34:25.182Z,19.206238
2022-07-25T22:35:33.839Z,19.256592
2022-07-25T22:36:42.529Z,19.296875
2022-07-25T22:37:50.201Z,19.266663
2022-07-25T22:38:59.878Z,19.176025
2022-07-25T22:40:07.541Z,19.115601
2022-07-25T22:41:16.209Z,19.035034
2022-07-25T22:42:25.906Z,18.98468
2022-07-25T22:43:57.131Z,18.924255
2022-07-25T22:44:45.203Z,18.883972
2022-07-25T22:45:54.946Z,18.863831
2022-07-25T22:47:03.510Z,18.813477
2022-07-25T22:48:13.212Z,18.833618
2022-07-25T22:49:20.876Z,18.803406
2022-07-25T22:50:29.519Z,18.783264
2022-07-25T22:51:38.176Z,18.783264
2022-07-25T22:52:47.872Z,18.803406
2022-07-25T22:53:57.679Z,18.783264
2022-07-25T22:55:06.337Z,18.833618
2022-07-25T22:56:14.007Z,18.863831
2022-07-25T22:57:23.683Z,18.894043
2022-07-25T22:58:33.359Z,18.863831
2022-07-25T22:59:43.050Z,18.894043
2022-07-25T23:00:52.719Z,18.894043
2022-07-25T23:02:00.380Z,18.924255
2022-07-25T23:03:10.121Z,18.964539
2022-07-25T23:04:18.763Z,18.954468
2022-07-25T23:05:27.448Z,18.934326
